createdAt,value
2019-04-11T00:01:02.404Z,43.83
2019-04-11T00:03:33.516Z,41.93
2019-04-11T00:06:05.244Z,42.00
2019-04-11T00:08:37.129Z,49.97
2019-04-11T00:11:09.347Z,41.90
2019-04-11T00:13:41.466Z,43.93
2019-04-11T00:16:13.077Z,42.70
2019-04-11T00:18:44.926Z,44.47
2019-04-11T00:21:16.972Z,43.43
2019-04-11T00:23:48.346Z,44.77
2019-04-11T00:26:20.184Z,42.40
2019-04-11T00:28:52.008Z,42.90
2019-04-11T00:31:23.020Z,44.20
2019-04-11T00:33:54.906Z,46.07
2019-04-11T00:36:25.546Z,46.10
2019-04-11T00:38:57.677Z,47.87
2019-04-11T00:41:30.791Z,50.13
2019-04-11T00:44:02.887Z,43.87
2019-04-11T00:46:34.210Z,50.47
2019-04-11T00:49:06.221Z,47.47
2019-04-11T00:51:38.061Z,49.40
2019-04-11T00:54:09.221Z,44.60
2019-04-11T00:56:40.076Z,44.13
2019-04-11T00:59:10.711Z,44.80
2019-04-11T01:01:42.960Z,43.87
2019-04-11T01:04:13.757Z,44.27
2019-04-11T01:06:44.590Z,48.90
2019-04-11T01:09:15.878Z,46.03
2019-04-11T01:11:46.453Z,39.40
2019-04-11T01:14:17.408Z,41.27
2019-04-11T01:16:57.256Z,42.27
2019-04-11T01:19:29.383Z,46.70
2019-04-11T01:22:01.251Z,43.10
2019-04-11T01:24:31.820Z,44.53
2019-04-11T01:27:02.890Z,42.87
2019-04-11T01:29:33.605Z,41.27
2019-04-11T01:32:06.876Z,40.57
2019-04-11T01:34:37.452Z,44.30
2019-04-11T01:37:09.186Z,41.40
2019-04-11T01:39:59.357Z,40.10
2019-04-11T01:42:31.240Z,37.87
2019-04-11T01:45:02.956Z,39.50
2019-04-11T01:47:53.271Z,39.67
2019-04-11T01:50:27.192Z,36.90
2019-04-11T01:52:58.437Z,38.27
2019-04-11T01:55:30.090Z,33.10
2019-04-11T01:58:00.574Z,33.47
2019-04-11T02:00:55.240Z,29.23
2019-04-11T02:03:39.737Z,28.63
2019-04-11T02:06:11.948Z,26.93
2019-04-11T02:08:43.769Z,24.40
2019-04-11T02:11:15.063Z,23.80
2019-04-11T02:13:45.629Z,21.43
2019-04-11T02:16:16.777Z,20.43
2019-04-11T02:18:47.773Z,19.77
2019-04-11T02:21:18.356Z,21.77
2019-04-11T02:24:10.556Z,17.77
2019-04-11T02:26:45.240Z,17.93
2019-04-11T02:29:15.400Z,17.73
2019-04-11T02:31:46.691Z,18.60
2019-04-11T02:34:19.366Z,18.97
2019-04-11T02:36:51.350Z,18.40
2019-04-11T02:39:22.866Z,16.90
2019-04-11T02:41:54.923Z,16.47
2019-04-11T02:44:34.909Z,18.00
2019-04-11T02:47:05.589Z,16.50
2019-04-11T02:49:31.329Z,16.33
2019-04-11T02:52:03.808Z,17.57
2019-04-11T02:54:36.672Z,19.47
2019-04-11T02:57:07.956Z,18.43
2019-04-11T02:59:39.050Z,18.17
2019-04-11T03:02:12.971Z,15.83
2019-04-11T03:04:43.952Z,15.23
2019-04-11T03:07:16.575Z,16.17
2019-04-11T03:09:48.842Z,14.73
2019-04-11T03:12:21.413Z,16.43
2019-04-11T03:15:09.371Z,18.80
2019-04-11T03:17:30.717Z,18.27
2019-04-11T03:20:08.913Z,16.20
2019-04-11T03:22:31.985Z,18.10
2019-04-11T03:25:03.702Z,17.03
2019-04-11T03:27:37.127Z,18.10
2019-04-11T03:30:14.562Z,16.93
2019-04-11T03:33:43.662Z,16.10
2019-04-11T03:38:05.158Z,18.40
2019-04-11T03:40:36.204Z,15.97
2019-04-11T03:43:05.773Z,16.00
2019-04-11T03:45:43.456Z,15.20
2019-04-11T03:48:10.896Z,18.67
2019-04-11T03:50:32.160Z,16.20
2019-04-11T03:53:04.735Z,17.73
2019-04-11T03:55:36.922Z,15.87
2019-04-11T03:58:08.448Z,17.63
2019-04-11T04:00:43.814Z,14.80
2019-04-11T04:03:13.478Z,14.53
2019-04-11T04:05:45.240Z,13.57
2019-04-11T04:08:17.811Z,14.67
2019-04-11T04:11:09.726Z,13.43
2019-04-11T04:13:45.552Z,15.50
2019-04-11T04:16:35.870Z,16.47
2019-04-11T04:19:25.107Z,17.20
2019-04-11T04:22:05.060Z,16.33
2019-04-11T04:24:40.003Z,14.87
2019-04-11T04:27:10.305Z,13.50
2019-04-11T04:29:41.444Z,14.53
2019-04-11T04:32:14.289Z,14.50
2019-04-11T04:34:46.388Z,14.57
2019-04-11T04:37:21.393Z,16.20
2019-04-11T04:40:10.713Z,14.17
2019-04-11T04:42:31.511Z,16.17
2019-04-11T04:44:56.102Z,17.13
2019-04-11T04:47:37.284Z,16.13
2019-04-11T04:50:01.430Z,14.17
2019-04-11T04:52:34.365Z,14.43
2019-04-11T04:55:17.263Z,13.90
2019-04-11T04:57:48.723Z,12.87
2019-04-11T05:00:20.828Z,13.73
2019-04-11T05:02:54.699Z,12.90
2019-04-11T05:05:26.794Z,13.73
2019-04-11T05:07:58.353Z,14.23
2019-04-11T05:10:30.757Z,14.73
2019-04-11T05:13:01.175Z,12.63
2019-04-11T05:15:32.432Z,14.53
2019-04-11T05:18:04.123Z,13.37
2019-04-11T05:20:36.308Z,13.10
2019-04-11T05:23:08.446Z,13.10
2019-04-11T05:25:39.133Z,14.47
2019-04-11T05:28:09.938Z,15.27
2019-04-11T05:30:41.842Z,14.20
2019-04-11T05:33:13.534Z,13.70
2019-04-11T05:35:44.479Z,12.63
2019-04-11T05:38:15.368Z,15.73
2019-04-11T05:40:46.679Z,12.90
2019-04-11T05:43:17.800Z,15.83
2019-04-11T05:45:52.429Z,14.23
2019-04-11T05:48:42.993Z,15.03
2019-04-11T05:51:13.507Z,12.50
2019-04-11T05:53:44.058Z,12.87
2019-04-11T05:56:17.767Z,14.33
2019-04-11T05:58:49.349Z,14.10
2019-04-11T06:01:38.741Z,12.03
2019-04-11T06:04:20.984Z,11.47
2019-04-11T06:07:01.527Z,13.20
2019-04-11T06:09:35.956Z,14.57
2019-04-11T06:12:22.763Z,11.93
2019-04-11T06:15:02.088Z,11.43
2019-04-11T06:17:32.830Z,13.27
2019-04-11T06:20:22.062Z,14.37
2019-04-11T06:23:15.932Z,15.17
2019-04-11T06:26:06.653Z,12.53
2019-04-11T06:28:38.092Z,15.50
2019-04-11T06:31:26.606Z,13.63
2019-04-11T06:34:03.415Z,12.43
2019-04-11T06:36:52.926Z,11.87
2019-04-11T06:39:33.535Z,11.97
2019-04-11T06:42:31.860Z,13.33
2019-04-11T06:45:21.850Z,14.33
2019-04-11T06:48:11.600Z,14.70
2019-04-11T06:50:59.667Z,14.63
2019-04-11T06:53:37.405Z,14.37
2019-04-11T06:56:43.320Z,13.27
2019-04-11T06:59:18.439Z,11.97
2019-04-11T07:01:51.053Z,15.90
2019-04-11T07:04:33.695Z,16.00
2019-04-11T07:07:06.589Z,13.67
2019-04-11T07:09:43.056Z,13.43
2019-04-11T07:12:20.722Z,13.50
2019-04-11T07:15:06.632Z,12.67
2019-04-11T07:17:56.654Z,12.77
2019-04-11T07:20:45.795Z,14.53
2019-04-11T07:23:33.764Z,15.30
2019-04-11T07:26:16.675Z,12.47
2019-04-11T07:29:04.868Z,14.07
2019-04-11T07:32:13.614Z,13.43
2019-04-11T07:35:02.309Z,13.90
2019-04-11T07:37:44.714Z,12.43
2019-04-11T07:40:35.141Z,13.83
2019-04-11T07:43:19.042Z,13.87
2019-04-11T07:46:25.439Z,13.33
2019-04-11T07:49:08.347Z,13.13
2019-04-11T07:51:52.780Z,12.50
2019-04-11T07:54:25.772Z,14.20
2019-04-11T07:57:02.297Z,13.73
2019-04-11T08:00:11.320Z,15.27
2019-04-11T08:03:14.458Z,12.63
2019-04-11T08:06:03.271Z,13.83
2019-04-11T08:08:51.832Z,15.97
2019-04-11T08:11:27.628Z,14.13
2019-04-11T08:14:20.143Z,13.17
2019-04-11T08:17:35.534Z,13.80
2019-04-11T08:20:19.413Z,13.10
2019-04-11T08:22:53.025Z,13.87
2019-04-11T08:25:50.584Z,13.07
2019-04-11T08:28:21.751Z,14.33
2019-04-11T08:31:17.301Z,14.47
2019-04-11T08:33:48.932Z,15.77
2019-04-11T08:36:31.684Z,13.30
2019-04-11T08:39:06.892Z,12.87
2019-04-11T08:42:09.406Z,13.03
2019-04-11T08:44:41.889Z,18.07
2019-04-11T08:47:14.660Z,13.43
2019-04-11T08:49:57.027Z,17.53
2019-04-11T08:52:58.798Z,13.97
2019-04-11T08:55:45.599Z,14.47
2019-04-11T08:58:12.122Z,15.20
2019-04-11T09:00:49.288Z,15.37
2019-04-11T09:03:34.798Z,14.70
2019-04-11T09:06:21.148Z,16.10
2019-04-11T09:09:09.503Z,17.97
2019-04-11T09:11:47.012Z,16.40
2019-04-11T09:14:36.064Z,17.87
2019-04-11T09:17:26.177Z,19.67
2019-04-11T09:20:28.065Z,18.17
2019-04-11T09:23:03.723Z,19.90
2019-04-11T09:25:53.744Z,20.23
2019-04-11T09:28:49.476Z,18.80
2019-04-11T09:31:42.562Z,20.73
2019-04-11T09:34:33.602Z,18.53
2019-04-11T09:37:23.855Z,19.03
2019-04-11T09:40:17.560Z,16.03
2019-04-11T09:42:53.368Z,18.23
2019-04-11T09:45:48.695Z,19.80
2019-04-11T09:48:42.093Z,19.80
2019-04-11T09:51:40.104Z,18.40
2019-04-11T09:54:35.111Z,21.40
2019-04-11T09:57:18.557Z,19.53
2019-04-11T09:59:58.216Z,16.97
2019-04-11T10:02:48.362Z,20.20
2019-04-11T10:05:26.416Z,17.70
2019-04-11T10:08:37.373Z,17.97
2019-04-11T10:11:26.168Z,21.50
2019-04-11T10:14:09.152Z,17.63
2019-04-11T10:16:58.231Z,17.37
2019-04-11T10:19:48.424Z,20.83
2019-04-11T10:22:44.037Z,19.33
2019-04-11T10:25:21.202Z,22.67
2019-04-11T10:28:29.500Z,23.50
2019-04-11T10:31:08.937Z,21.23
2019-04-11T10:33:57.678Z,18.83
2019-04-11T10:36:43.395Z,19.07
2019-04-11T10:39:31.814Z,21.53
2019-04-11T10:42:10.588Z,19.23
2019-04-11T10:45:00.299Z,19.47
2019-04-11T10:47:33.287Z,19.33
2019-04-11T10:50:17.521Z,20.63
2019-04-11T10:52:55.092Z,20.37
2019-04-11T10:55:46.085Z,21.30
2019-04-11T10:58:20.809Z,19.33
2019-04-11T11:01:13.163Z,22.50
2019-04-11T11:03:49.412Z,21.83
2019-04-11T11:06:23.996Z,21.70
2019-04-11T11:09:15.220Z,21.63
2019-04-11T11:11:57.237Z,21.93
2019-04-11T11:14:45.271Z,20.43
2019-04-11T11:17:54.652Z,23.23
2019-04-11T11:20:34.650Z,21.73
2019-04-11T11:23:31.671Z,22.23
2019-04-11T11:26:07.033Z,21.27
2019-04-11T11:29:07.377Z,21.10
2019-04-11T11:31:40.886Z,22.63
2019-04-11T11:34:19.263Z,23.73
2019-04-11T11:37:05.319Z,21.17
2019-04-11T11:39:58.919Z,23.50
2019-04-11T11:42:40.631Z,23.20
2019-04-11T11:45:19.517Z,22.80
2019-04-11T11:48:20.853Z,21.13
2019-04-11T11:50:51.508Z,24.27
2019-04-11T11:53:47.499Z,24.33
2019-04-11T11:56:19.957Z,22.70
2019-04-11T11:59:06.919Z,23.97
2019-04-11T12:01:43.250Z,22.27
2019-04-11T12:04:32.936Z,20.20
2019-04-11T12:07:06.029Z,25.67
2019-04-11T12:09:55.855Z,25.90
2019-04-11T12:12:33.047Z,25.07
2019-04-11T12:15:22.772Z,23.07
2019-04-11T12:18:22.533Z,24.47
2019-04-11T12:20:59.394Z,26.03
2019-04-11T12:24:00.727Z,24.83
2019-04-11T12:26:28.804Z,22.43
2019-04-11T12:29:18.579Z,24.50
2019-04-11T12:31:53.180Z,24.27
2019-04-11T12:34:43.965Z,23.00
2019-04-11T12:37:25.053Z,25.57
2019-04-11T12:40:13.343Z,24.70
2019-04-11T12:42:44.444Z,26.17
2019-04-11T12:45:40.177Z,28.53
2019-04-11T12:48:12.106Z,26.40
2019-04-11T12:51:00.408Z,26.63
2019-04-11T12:53:31.532Z,27.13
2019-04-11T12:56:27.007Z,27.67
2019-04-11T12:59:09.630Z,28.63
2019-04-11T13:01:57.947Z,29.50
2019-04-11T13:04:39.442Z,28.67
2019-04-11T13:07:34.732Z,26.23
2019-04-11T13:10:15.965Z,27.00
2019-04-11T13:13:20.661Z,26.50
2019-04-11T13:15:58.651Z,26.80
2019-04-11T13:19:03.298Z,27.13
2019-04-11T13:21:47.000Z,25.47
2019-04-11T13:24:39.722Z,31.27
2019-04-11T13:27:25.751Z,27.73
2019-04-11T13:30:19.132Z,31.20
2019-04-11T13:32:52.317Z,28.47
2019-04-11T13:35:40.594Z,29.30
2019-04-11T13:38:23.472Z,30.53
2019-04-11T13:41:15.887Z,29.93
2019-04-11T13:44:05.193Z,30.50
2019-04-11T13:46:58.072Z,29.63
2019-04-11T13:49:41.761Z,27.67
2019-04-11T13:52:31.259Z,26.17
2019-04-11T13:55:20.305Z,29.40
2019-04-11T13:58:12.983Z,31.10
2019-04-11T14:00:54.476Z,33.00
2019-04-11T14:03:43.914Z,29.13
2019-04-11T14:06:34.078Z,30.77
2019-04-11T14:09:24.327Z,33.10
2019-04-11T14:11:56.671Z,31.90
2019-04-11T14:14:51.848Z,29.90
2019-04-11T14:17:50.131Z,31.37
2019-04-11T14:20:44.095Z,30.43
2019-04-11T14:23:33.488Z,30.10
2019-04-11T14:26:26.232Z,31.07
2019-04-11T14:29:22.187Z,30.47
2019-04-11T14:32:01.665Z,33.27
2019-04-11T14:35:03.151Z,29.40
2019-04-11T14:37:50.539Z,32.90
2019-04-11T14:41:01.890Z,32.90
2019-04-11T14:43:33.641Z,30.27
2019-04-11T14:46:23.132Z,29.77
2019-04-11T14:49:14.372Z,35.00
2019-04-11T14:52:10.609Z,33.33
2019-04-11T14:54:44.371Z,31.97
2019-04-11T14:57:32.073Z,33.40
2019-04-11T15:00:09.048Z,29.80
2019-04-11T15:02:59.134Z,32.83
2019-04-11T15:05:45.291Z,30.60
2019-04-11T15:08:21.387Z,32.73
2019-04-11T15:11:03.224Z,30.63
2019-04-11T15:13:34.288Z,29.97
2019-04-11T15:16:17.744Z,32.03
2019-04-11T15:18:55.434Z,32.53
2019-04-11T15:22:00.183Z,30.93
2019-04-11T15:24:30.768Z,35.80
2019-04-11T15:27:23.991Z,32.63
2019-04-11T15:29:58.768Z,33.70
2019-04-11T15:33:00.541Z,36.40
2019-04-11T15:35:31.047Z,30.07
2019-04-11T15:38:19.587Z,29.50
2019-04-11T15:40:53.535Z,33.30
2019-04-11T15:43:43.242Z,34.40
2019-04-11T15:46:25.211Z,30.70
2019-04-11T15:49:20.423Z,29.87
2019-04-11T15:51:57.603Z,30.60
2019-04-11T15:54:47.084Z,32.93
2019-04-11T15:57:36.918Z,32.83
2019-04-11T16:00:30.761Z,29.17
2019-04-11T16:03:14.699Z,31.67
2019-04-11T16:06:16.801Z,32.23
2019-04-11T16:08:50.768Z,30.97
2019-04-11T16:11:52.855Z,36.13
2019-04-11T16:14:39.144Z,34.30
2019-04-11T16:17:34.833Z,34.90
2019-04-11T16:20:18.309Z,33.57
2019-04-11T16:23:10.047Z,33.50
2019-04-11T16:25:54.652Z,34.87
2019-04-11T16:29:02.592Z,32.70
2019-04-11T16:31:40.188Z,33.10
2019-04-11T16:34:19.907Z,33.60
2019-04-11T16:36:52.858Z,32.33
2019-04-11T16:39:45.279Z,31.93
2019-04-11T16:42:19.092Z,35.00
2019-04-11T16:45:25.000Z,34.33
2019-04-11T16:48:05.273Z,31.67
2019-04-11T16:50:36.767Z,32.57
2019-04-11T16:53:10.670Z,31.63
2019-04-11T16:55:43.096Z,29.90
2019-04-11T16:58:15.166Z,31.30
2019-04-11T17:00:46.269Z,33.47
2019-04-11T17:03:18.232Z,32.67
2019-04-11T17:05:56.465Z,32.33
2019-04-11T17:08:38.340Z,33.37
2019-04-11T17:11:12.540Z,32.10
2019-04-11T17:13:43.495Z,34.07
2019-04-11T17:16:17.022Z,31.37
2019-04-11T17:18:48.730Z,30.23
2019-04-11T17:21:19.771Z,34.63
2019-04-11T17:23:50.420Z,30.17
2019-04-11T17:26:23.304Z,29.10
2019-04-11T17:28:54.774Z,29.07
2019-04-11T17:31:27.334Z,31.70
2019-04-11T17:34:01.415Z,31.30
2019-04-11T17:36:33.523Z,27.13
2019-04-11T17:39:07.044Z,27.43
2019-04-11T17:41:41.848Z,29.07
2019-04-11T17:44:11.547Z,29.03
2019-04-11T17:46:42.202Z,30.80
2019-04-11T17:49:13.227Z,29.03
2019-04-11T17:51:55.268Z,29.93
2019-04-11T17:54:17.980Z,29.50
2019-04-11T17:56:48.972Z,25.70
2019-04-11T17:59:20.528Z,27.03
2019-04-11T18:01:51.064Z,29.87
2019-04-11T18:04:21.983Z,29.83
2019-04-11T18:06:56.617Z,28.50
2019-04-11T18:09:33.171Z,29.83
2019-04-11T18:12:03.723Z,27.97
2019-04-11T18:14:35.015Z,27.47
2019-04-11T18:17:06.149Z,26.60
2019-04-11T18:19:36.855Z,25.07
2019-04-11T18:22:12.859Z,26.70
2019-04-11T18:24:41.329Z,28.30
2019-04-11T18:27:12.996Z,25.97
2019-04-11T18:29:44.069Z,28.30
2019-04-11T18:32:14.487Z,25.93
2019-04-11T18:34:45.147Z,26.73
2019-04-11T18:37:16.348Z,26.83
2019-04-11T18:39:47.867Z,25.27
2019-04-11T18:42:19.409Z,26.10
2019-04-11T18:44:49.992Z,23.70
2019-04-11T18:47:20.633Z,26.20
2019-04-11T18:49:53.263Z,25.17
2019-04-11T18:52:26.512Z,25.63
2019-04-11T18:54:57.824Z,21.90
2019-04-11T18:57:29.112Z,25.70
2019-04-11T19:00:02.378Z,23.27
2019-04-11T19:02:34.475Z,25.27
2019-04-11T19:05:06.302Z,24.60
2019-04-11T19:07:42.823Z,21.57
2019-04-11T19:10:15.014Z,21.37
2019-04-11T19:12:46.451Z,21.60
2019-04-11T19:15:17.793Z,24.40
2019-04-11T19:17:48.766Z,22.80
2019-04-11T19:20:20.439Z,24.57
2019-04-11T19:22:51.395Z,22.43
2019-04-11T19:25:22.586Z,21.30
2019-04-11T19:27:54.382Z,22.80
2019-04-11T19:30:27.014Z,20.60
2019-04-11T19:32:58.161Z,23.90
2019-04-11T19:35:29.280Z,26.27
2019-04-11T19:38:00.240Z,24.37
2019-04-11T19:40:31.157Z,22.20
2019-04-11T19:43:01.779Z,23.33
2019-04-11T19:45:32.833Z,22.63
2019-04-11T19:48:04.299Z,21.23
2019-04-11T19:50:35.431Z,22.37
2019-04-11T19:53:06.471Z,23.63
2019-04-11T19:55:55.508Z,20.70
2019-04-11T19:58:30.300Z,19.13
2019-04-11T20:01:01.251Z,21.93
2019-04-11T20:03:32.311Z,18.77
2019-04-11T20:06:03.578Z,19.53
2019-04-11T20:08:34.209Z,19.80
2019-04-11T20:11:05.753Z,20.00
2019-04-11T20:13:36.681Z,19.97
2019-04-11T20:16:12.276Z,20.77
2019-04-11T20:18:50.400Z,20.57
2019-04-11T20:21:14.797Z,20.97
2019-04-11T20:23:45.778Z,19.80
2019-04-11T20:26:22.303Z,22.30
2019-04-11T20:28:54.026Z,20.07
2019-04-11T20:31:31.585Z,21.43
2019-04-11T20:34:06.880Z,20.73
2019-04-11T20:36:36.360Z,18.47
2019-04-11T20:39:09.317Z,19.00
2019-04-11T20:41:40.264Z,20.20
2019-04-11T20:44:10.828Z,19.93
2019-04-11T20:46:41.459Z,18.13
2019-04-11T20:49:12.453Z,19.17
2019-04-11T20:51:43.073Z,18.70
2019-04-11T20:54:13.665Z,17.70
2019-04-11T20:56:44.190Z,21.07
2019-04-11T20:59:15.294Z,20.43
2019-04-11T21:01:45.891Z,20.43
2019-04-11T21:04:16.448Z,18.90
2019-04-11T21:06:47.515Z,18.80
2019-04-11T21:09:18.460Z,19.80
2019-04-11T21:11:48.980Z,17.40
2019-04-11T21:14:20.042Z,18.80
2019-04-11T21:16:51.030Z,18.57
2019-04-11T21:19:23.273Z,19.67
2019-04-11T21:21:54.408Z,18.10
2019-04-11T21:24:25.588Z,18.50
2019-04-11T21:27:00.845Z,18.43
2019-04-11T21:29:31.872Z,16.50
2019-04-11T21:32:02.904Z,16.83
2019-04-11T21:34:33.966Z,16.17
2019-04-11T21:37:04.740Z,16.90
2019-04-11T21:39:35.275Z,16.07
2019-04-11T21:42:06.654Z,18.80
2019-04-11T21:44:38.315Z,16.87
2019-04-11T21:47:08.952Z,16.30
2019-04-11T21:49:40.059Z,15.83
2019-04-11T21:52:12.266Z,18.90
2019-04-11T21:54:45.312Z,16.17
2019-04-11T21:57:18.436Z,16.03
2019-04-11T21:59:51.541Z,16.83
2019-04-11T22:02:23.996Z,15.63
2019-04-11T22:04:53.907Z,16.60
2019-04-11T22:07:25.727Z,20.33
2019-04-11T22:09:56.277Z,17.40
2019-04-11T22:12:27.948Z,15.33
2019-04-11T22:14:58.970Z,17.37
2019-04-11T22:17:29.516Z,18.30
2019-04-11T22:20:00.464Z,19.87
2019-04-11T22:22:30.919Z,15.83
2019-04-11T22:25:01.322Z,18.07
2019-04-11T22:27:31.767Z,17.30
2019-04-11T22:30:02.338Z,18.00
2019-04-11T22:32:33.667Z,16.87
2019-04-11T22:35:04.395Z,17.63
2019-04-11T22:37:34.908Z,16.80
2019-04-11T22:40:05.895Z,15.73
2019-04-11T22:42:36.395Z,17.63
2019-04-11T22:45:08.358Z,17.33
2019-04-11T22:47:39.996Z,19.33
2019-04-11T22:50:10.741Z,16.43
2019-04-11T22:52:42.327Z,17.23
2019-04-11T22:55:13.455Z,18.83
2019-04-11T22:57:44.376Z,16.80
2019-04-11T23:00:16.543Z,18.47
2019-04-11T23:02:52.667Z,15.67
2019-04-11T23:05:23.223Z,20.60
2019-04-11T23:07:53.736Z,16.73
2019-04-11T23:10:24.221Z,18.70
2019-04-11T23:12:54.792Z,17.93
2019-04-11T23:15:25.883Z,17.87
2019-04-11T23:17:56.804Z,17.23
2019-04-11T23:20:27.307Z,17.67
2019-04-11T23:22:58.286Z,17.80
2019-04-11T23:25:29.271Z,18.87
2019-04-11T23:28:00.697Z,18.07
2019-04-11T23:30:31.714Z,18.77
2019-04-11T23:33:02.234Z,18.93
2019-04-11T23:35:32.740Z,17.57
2019-04-11T23:38:04.016Z,17.60
2019-04-11T23:40:34.924Z,18.23
2019-04-11T23:43:06.287Z,17.87
2019-04-11T23:45:36.838Z,18.03
2019-04-11T23:48:08.010Z,19.90
2019-04-11T23:50:38.512Z,16.57
2019-04-11T23:53:09.036Z,15.27
2019-04-11T23:55:39.566Z,17.33
2019-04-11T23:58:10.071Z,17.93
